San Luis Potosi, SLP, Mexico
Current Conditions -  °F | °C
As of 8:48 PM on Wednesday 22 Oct 2014 (Local Time) from MMSP Reporting Station
Scattered Clouds Scattered Clouds  
Wind Chill: 63°   Ceiling: Unl
Heat Index: 63°   Visibility: 12mi
Dew Point: 52°   Wind: 9mph
Humidity: 68%   Direction: 70°ENE
Pressure: 30.23"   Gusts: NA
Location:  22.16°N, 100.98°W
Report Text: MMSP 230148Z 07008KT 12SM SCT020 17/11 A3023 RMK 8/500
Loading
Personal Weather Stations






























Interactive Weather Map
Tropical Storm Tracking
New forecast layout! Learn more

10-Day Weather Forecast

Advertisements
Track Severe Weather on mobile